Victoria Kosan — 2BYK3 — position and weather

sailwx.info

Track history (hours):
 
Tides and Currents Weather Stations Pressure Air Temp Water Temp Dewpoint Dewpoint Depression Visibility Wind Speed Wind Dir Waves Ship Positions

Victoria Kosan

Last reported at 2018-Jan-01 22:35 UTC. Time now 2018-Jan-20 11:06 UTC.
Position N 09°11' W 079°52'.
Warning: this ship's position is 18 days out of date.

Length 115 m; draft 7.9 m.

Type: Ship (hazmat cat B). MMSI: 235070466.

Date/timePositionNaut miles runAvg speedWind from/ knotsBaromVisibWave heightAir tempDewpointWater temp
2018-Jan-01 22:35N 09°11' W 079°52'211.5
2018-Jan-01 22:25N 09°12' W 079°54'4 9.9
2018-Jan-01 21:59N 09°16' W 079°55'1 1.3
2018-Jan-01 21:30N 09°16' W 079°55'0 0.4
2018-Jan-01 21:00N 09°17' W 079°55'1 1.7
2018-Jan-01 20:30N 09°17' W 079°55'1 1.8
2018-Jan-01 20:00N 09°18' W 079°55'3 6.8
2018-Jan-01 19:30N 09°22' W 079°55'1 1.0
2018-Jan-01 18:59N 09°22' W 079°56'0 0.0
2018-Jan-01 18:29N 09°22' W 079°56'0 0.0
2018-Jan-01 17:59N 09°22' W 079°56'0 0.1
2018-Jan-01 17:29N 09°22' W 079°56'0 0.0
2018-Jan-01 15:00N 09°22' W 079°56'1 2.7
2018-Jan-01 14:30N 09°23' W 079°55'2 3.1
2018-Jan-01 13:59N 09°24' W 079°57'0 0.0
2018-Jan-01 13:29N 09°24' W 079°57'0 0.0
2018-Jan-01 12:59N 09°24' W 079°57'0 0.0
2018-Jan-01 11:59N 09°24' W 079°57'0 0.0
2018-Jan-01 11:29N 09°24' W 079°57'0 0.0
2018-Jan-01 10:59N 09°24' W 079°57'0 0.0
2018-Jan-01 10:29N 09°24' W 079°57'0 0.0
2018-Jan-01 09:59N 09°24' W 079°57'0 0.0
2018-Jan-01 09:29N 09°24' W 079°57'0 0.0
2018-Jan-01 08:29N 09°24' W 079°57'0 0.0
2018-Jan-01 07:59N 09°24' W 079°57'0 0.0
2018-Jan-01 07:23N 09°24' W 079°57'0 0.0
2018-Jan-01 06:59N 09°24' W 079°57'0 0.0
2018-Jan-01 05:59N 09°24' W 079°57'0 0.0
2018-Jan-01 05:29N 09°24' W 079°57'0 0.0
2018-Jan-01 04:59N 09°24' W 079°57'0 0.0
2018-Jan-01 03:59N 09°24' W 079°57'0 0.0
2018-Jan-01 03:29N 09°24' W 079°57'0 0.0
2018-Jan-01 02:59N 09°24' W 079°57'0 0.0
2018-Jan-01 02:29N 09°24' W 079°57'0 0.0
2018-Jan-01 01:59N 09°24' W 079°57'0 0.0
2018-Jan-01 01:29N 09°24' W 079°57'0 0.0
2018-Jan-01 00:29N 09°24' W 079°57'0 0.0
2017-Dec-31 20:59N 09°24' W 079°57'0 0.0
2017-Dec-31 20:29N 09°24' W 079°57'0 0.0
2017-Dec-31 19:59N 09°24' W 079°57'0 0.0
2017-Dec-31 19:29N 09°24' W 079°57'0 0.0
2017-Dec-31 18:59N 09°24' W 079°57'0 0.0
2017-Dec-31 18:29N 09°24' W 079°57'0 0.0
2017-Dec-31 17:59N 09°24' W 079°57'0 0.0
2017-Dec-31 17:29N 09°24' W 079°57'0 0.2
2017-Dec-31 16:59N 09°24' W 079°56'0 0.2
2017-Dec-31 16:29N 09°24' W 079°57'0 0.1
2017-Dec-31 15:59N 09°24' W 079°57'0 0.1
2017-Dec-31 15:29N 09°24' W 079°57'0 0.0
2017-Dec-31 14:59N 09°24' W 079°57'0 0.1
2017-Dec-31 14:29N 09°24' W 079°57'0 0.2
2017-Dec-31 13:59N 09°24' W 079°56'0 0.1
2017-Dec-31 13:29N 09°24' W 079°56'0 0.0
2017-Dec-31 12:59N 09°24' W 079°56'0 0.0
2017-Dec-31 12:29N 09°24' W 079°56'0 0.0
2017-Dec-31 11:59N 09°24' W 079°56'0 0.1
2017-Dec-31 11:29N 09°24' W 079°56'0 0.1
2017-Dec-31 10:59N 09°24' W 079°56'0 0.0
2017-Dec-31 10:29N 09°24' W 079°56'0 0.0
2017-Dec-31 09:59N 09°24' W 079°56'0 0.0
2017-Dec-31 09:29N 09°24' W 079°56'0 0.0
2017-Dec-31 08:59N 09°24' W 079°56'0 0.0
2017-Dec-31 08:29N 09°24' W 079°56'0 0.0
2017-Dec-31 07:59N 09°24' W 079°56'0 0.0
2017-Dec-31 07:29N 09°24' W 079°56'0 0.0
2017-Dec-31 06:59N 09°24' W 079°56'0 0.0
2017-Dec-31 06:29N 09°24' W 079°56'0 0.0
2017-Dec-31 05:59N 09°24' W 079°56'0 0.0
2017-Dec-31 05:29N 09°24' W 079°56'0 0.0
2017-Dec-31 04:59N 09°24' W 079°56'0 0.0
2017-Dec-31 04:29N 09°24' W 079°56'0 0.0
2017-Dec-31 03:59N 09°24' W 079°56'0 0.0
2017-Dec-31 03:29N 09°24' W 079°56'0 0.0
2017-Dec-31 02:59N 09°24' W 079°56'0 0.0
2017-Dec-31 02:29N 09°24' W 079°56'0 0.0
2017-Dec-31 01:59N 09°24' W 079°56'0 0.0
2017-Dec-31 01:29N 09°24' W 079°56'0 0.0
2017-Dec-31 00:59N 09°24' W 079°56'0 0.0
2017-Dec-31 00:29N 09°24' W 079°56'0 0.0
2017-Dec-30 23:59N 09°24' W 079°56'0 0.0
2017-Dec-30 23:29N 09°24' W 079°56'0 0.0
2017-Dec-30 22:59N 09°24' W 079°56'0 0.0
2017-Dec-30 22:29N 09°24' W 079°56'0 0.0
2017-Dec-30 21:59N 09°24' W 079°56'0 0.0
2017-Dec-30 21:29N 09°24' W 079°56'0 0.0
2017-Dec-30 20:59N 09°24' W 079°56'0 0.0
2017-Dec-30 20:29N 09°24' W 079°56'0 0.0
2017-Dec-30 19:59N 09°24' W 079°56'0 0.0
2017-Dec-30 19:29N 09°24' W 079°56'0 0.0
2017-Dec-30 18:59N 09°24' W 079°56'0 0.0
2017-Dec-30 18:29N 09°24' W 079°56'0 0.0
2017-Dec-30 17:59N 09°24' W 079°56'0 0.0
2017-Dec-30 17:29N 09°24' W 079°56'0 0.0
2017-Dec-30 16:59N 09°24' W 079°56'0 0.0
2017-Dec-30 16:29N 09°24' W 079°56'0 0.0
2017-Dec-30 15:59N 09°24' W 079°56'0 0.0
2017-Dec-30 15:29N 09°24' W 079°56'0 0.0
2017-Dec-30 14:59N 09°24' W 079°56'0 0.0
2017-Dec-30 14:29N 09°24' W 079°56'0 0.0
2017-Dec-30 13:59N 09°24' W 079°56'0 0.0
2017-Dec-30 13:29N 09°24' W 079°56'0 0.0
2017-Dec-30 12:59N 09°24' W 079°56'0 0.0
2017-Dec-30 12:29N 09°24' W 079°56'0 0.0
2017-Dec-30 11:59N 09°24' W 079°56'0 0.0
2017-Dec-30 11:29N 09°24' W 079°56'0 0.0
2017-Dec-30 10:59N 09°24' W 079°56'0 0.0
2017-Dec-30 10:29N 09°24' W 079°56'0 0.0
2017-Dec-30 09:59N 09°24' W 079°56'0 0.0
2017-Dec-30 09:29N 09°24' W 079°56'0 0.0
2017-Dec-30 08:59N 09°24' W 079°56'0 0.0
2017-Dec-30 08:29N 09°24' W 079°56'0 0.0
2017-Dec-30 07:59N 09°24' W 079°56'0 0.0
2017-Dec-30 07:26N 09°24' W 079°56'0 0.0
2017-Dec-30 06:59N 09°24' W 079°56'0 0.0
2017-Dec-30 06:29N 09°24' W 079°56'0 0.0
2017-Dec-30 05:59N 09°24' W 079°56'0 0.0
2017-Dec-30 05:29N 09°24' W 079°56'0 0.0
2017-Dec-30 04:59N 09°24' W 079°56'0 0.0
2017-Dec-30 04:29N 09°24' W 079°56'0 0.0
2017-Dec-30 03:59N 09°24' W 079°56'1 1.5
2017-Dec-30 03:30N 09°25' W 079°56'710.4
2017-Dec-30 02:51N 09°31' W 079°53'611.7
2017-Dec-30 02:22N 09°36' W 079°52'  
2017-Dec-24 20:29N 29°28' W 094°51'714.8
2017-Dec-24 20:00N 29°34' W 094°55'714.2
2017-Dec-24 19:30N 29°41' W 094°59'5 9.6
2017-Dec-24 19:00N 29°44' W 095°03'3 5.9
2017-Dec-24 18:30N 29°45' W 095°06'2 4.9
2017-Dec-24 18:00N 29°44' W 095°09'3 5.8
2017-Dec-24 17:30N 29°44' W 095°12'2 4.7
2017-Dec-24 17:00N 29°43' W 095°14'0 0.1
2017-Dec-24 16:20N 29°43' W 095°14'0 0.0
2017-Dec-23 07:59N 29°43' W 095°14'1 2.8
2017-Dec-23 07:30N 29°43' W 095°13'3 6.0
2017-Dec-23 07:00N 29°45' W 095°10'3 6.6
2017-Dec-23 06:30N 29°45' W 095°06'3 6.5
2017-Dec-23 06:00N 29°44' W 095°02'3 6.7
2017-Dec-23 05:30N 29°42' W 094°60'510.3
2017-Dec-23 05:00N 29°37' W 094°57'713.2
2017-Dec-23 04:30N 29°31' W 094°53'815.9
2017-Dec-23 04:00N 29°24' W 094°49'  
Track history (hours):
 
Tides and Currents Weather Stations Pressure Air Temp Water Temp Dewpoint Dewpoint Depression Visibility Wind Speed Wind Dir Waves Ship Positions

Victoria Kosan

Last reported at 2018-Jan-01 22:35 UTC. Time now 2018-Jan-20 11:06 UTC.
Position N 09°11' W 079°52'.
Warning: this ship's position is 18 days out of date.

Length 115 m; draft 7.9 m.

Type: Ship (hazmat cat B). MMSI: 235070466.

Date/timePositionNaut miles runAvg speedWind from/ knotsBaromVisibWave heightAir tempDewpointWater temp
2018-Jan-01 22:35N 09°11' W 079°52'211.5
2018-Jan-01 22:25N 09°12' W 079°54'4 9.9
2018-Jan-01 21:59N 09°16' W 079°55'1 1.3
2018-Jan-01 21:30N 09°16' W 079°55'0 0.4
2018-Jan-01 21:00N 09°17' W 079°55'1 1.7
2018-Jan-01 20:30N 09°17' W 079°55'1 1.8
2018-Jan-01 20:00N 09°18' W 079°55'3 6.8
2018-Jan-01 19:30N 09°22' W 079°55'1 1.0
2018-Jan-01 18:59N 09°22' W 079°56'0 0.0
2018-Jan-01 18:29N 09°22' W 079°56'0 0.0
2018-Jan-01 17:59N 09°22' W 079°56'0 0.1
2018-Jan-01 17:29N 09°22' W 079°56'0 0.0
2018-Jan-01 15:00N 09°22' W 079°56'1 2.7
2018-Jan-01 14:30N 09°23' W 079°55'2 3.1
2018-Jan-01 13:59N 09°24' W 079°57'0 0.0
2018-Jan-01 13:29N 09°24' W 079°57'0 0.0
2018-Jan-01 12:59N 09°24' W 079°57'0 0.0
2018-Jan-01 11:59N 09°24' W 079°57'0 0.0
2018-Jan-01 11:29N 09°24' W 079°57'0 0.0
2018-Jan-01 10:59N 09°24' W 079°57'0 0.0
2018-Jan-01 10:29N 09°24' W 079°57'0 0.0
2018-Jan-01 09:59N 09°24' W 079°57'0 0.0
2018-Jan-01 09:29N 09°24' W 079°57'0 0.0
2018-Jan-01 08:29N 09°24' W 079°57'0 0.0
2018-Jan-01 07:59N 09°24' W 079°57'0 0.0
2018-Jan-01 07:23N 09°24' W 079°57'0 0.0
2018-Jan-01 06:59N 09°24' W 079°57'0 0.0
2018-Jan-01 05:59N 09°24' W 079°57'0 0.0
2018-Jan-01 05:29N 09°24' W 079°57'0 0.0
2018-Jan-01 04:59N 09°24' W 079°57'0 0.0
2018-Jan-01 03:59N 09°24' W 079°57'0 0.0
2018-Jan-01 03:29N 09°24' W 079°57'0 0.0
2018-Jan-01 02:59N 09°24' W 079°57'0 0.0
2018-Jan-01 02:29N 09°24' W 079°57'0 0.0
2018-Jan-01 01:59N 09°24' W 079°57'0 0.0
2018-Jan-01 01:29N 09°24' W 079°57'0 0.0
2018-Jan-01 00:29N 09°24' W 079°57'0 0.0
2017-Dec-31 20:59N 09°24' W 079°57'0 0.0
2017-Dec-31 20:29N 09°24' W 079°57'0 0.0
2017-Dec-31 19:59N 09°24' W 079°57'0 0.0
2017-Dec-31 19:29N 09°24' W 079°57'0 0.0
2017-Dec-31 18:59N 09°24' W 079°57'0 0.0
2017-Dec-31 18:29N 09°24' W 079°57'0 0.0
2017-Dec-31 17:59N 09°24' W 079°57'0 0.0
2017-Dec-31 17:29N 09°24' W 079°57'0 0.2
2017-Dec-31 16:59N 09°24' W 079°56'0 0.2
2017-Dec-31 16:29N 09°24' W 079°57'0 0.1
2017-Dec-31 15:59N 09°24' W 079°57'0 0.1
2017-Dec-31 15:29N 09°24' W 079°57'0 0.0
2017-Dec-31 14:59N 09°24' W 079°57'0 0.1
2017-Dec-31 14:29N 09°24' W 079°57'0 0.2
2017-Dec-31 13:59N 09°24' W 079°56'0 0.1
2017-Dec-31 13:29N 09°24' W 079°56'0 0.0
2017-Dec-31 12:59N 09°24' W 079°56'0 0.0
2017-Dec-31 12:29N 09°24' W 079°56'0 0.0
2017-Dec-31 11:59N 09°24' W 079°56'0 0.1
2017-Dec-31 11:29N 09°24' W 079°56'0 0.1
2017-Dec-31 10:59N 09°24' W 079°56'0 0.0
2017-Dec-31 10:29N 09°24' W 079°56'0 0.0
2017-Dec-31 09:59N 09°24' W 079°56'0 0.0
2017-Dec-31 09:29N 09°24' W 079°56'0 0.0
2017-Dec-31 08:59N 09°24' W 079°56'0 0.0
2017-Dec-31 08:29N 09°24' W 079°56'0 0.0
2017-Dec-31 07:59N 09°24' W 079°56'0 0.0
2017-Dec-31 07:29N 09°24' W 079°56'0 0.0
2017-Dec-31 06:59N 09°24' W 079°56'0 0.0
2017-Dec-31 06:29N 09°24' W 079°56'0 0.0
2017-Dec-31 05:59N 09°24' W 079°56'0 0.0
2017-Dec-31 05:29N 09°24' W 079°56'0 0.0
2017-Dec-31 04:59N 09°24' W 079°56'0 0.0
2017-Dec-31 04:29N 09°24' W 079°56'0 0.0
2017-Dec-31 03:59N 09°24' W 079°56'0 0.0
2017-Dec-31 03:29N 09°24' W 079°56'0 0.0
2017-Dec-31 02:59N 09°24' W 079°56'0 0.0
2017-Dec-31 02:29N 09°24' W 079°56'0 0.0
2017-Dec-31 01:59N 09°24' W 079°56'0 0.0
2017-Dec-31 01:29N 09°24' W 079°56'0 0.0
2017-Dec-31 00:59N 09°24' W 079°56'0 0.0
2017-Dec-31 00:29N 09°24' W 079°56'0 0.0
2017-Dec-30 23:59N 09°24' W 079°56'0 0.0
2017-Dec-30 23:29N 09°24' W 079°56'0 0.0
2017-Dec-30 22:59N 09°24' W 079°56'0 0.0
2017-Dec-30 22:29N 09°24' W 079°56'0 0.0
2017-Dec-30 21:59N 09°24' W 079°56'0 0.0
2017-Dec-30 21:29N 09°24' W 079°56'0 0.0
2017-Dec-30 20:59N 09°24' W 079°56'0 0.0
2017-Dec-30 20:29N 09°24' W 079°56'0 0.0
2017-Dec-30 19:59N 09°24' W 079°56'0 0.0
2017-Dec-30 19:29N 09°24' W 079°56'0 0.0
2017-Dec-30 18:59N 09°24' W 079°56'0 0.0
2017-Dec-30 18:29N 09°24' W 079°56'0 0.0
2017-Dec-30 17:59N 09°24' W 079°56'0 0.0
2017-Dec-30 17:29N 09°24' W 079°56'0 0.0
2017-Dec-30 16:59N 09°24' W 079°56'0 0.0
2017-Dec-30 16:29N 09°24' W 079°56'0 0.0
2017-Dec-30 15:59N 09°24' W 079°56'0 0.0
2017-Dec-30 15:29N 09°24' W 079°56'0 0.0
2017-Dec-30 14:59N 09°24' W 079°56'0 0.0
2017-Dec-30 14:29N 09°24' W 079°56'0 0.0
2017-Dec-30 13:59N 09°24' W 079°56'0 0.0
2017-Dec-30 13:29N 09°24' W 079°56'0 0.0
2017-Dec-30 12:59N 09°24' W 079°56'0 0.0
2017-Dec-30 12:29N 09°24' W 079°56'0 0.0
2017-Dec-30 11:59N 09°24' W 079°56'0 0.0
2017-Dec-30 11:29N 09°24' W 079°56'0 0.0
2017-Dec-30 10:59N 09°24' W 079°56'0 0.0
2017-Dec-30 10:29N 09°24' W 079°56'0 0.0
2017-Dec-30 09:59N 09°24' W 079°56'0 0.0
2017-Dec-30 09:29N 09°24' W 079°56'0 0.0
2017-Dec-30 08:59N 09°24' W 079°56'0 0.0
2017-Dec-30 08:29N 09°24' W 079°56'0 0.0
2017-Dec-30 07:59N 09°24' W 079°56'0 0.0
2017-Dec-30 07:26N 09°24' W 079°56'0 0.0
2017-Dec-30 06:59N 09°24' W 079°56'0 0.0
2017-Dec-30 06:29N 09°24' W 079°56'0 0.0
2017-Dec-30 05:59N 09°24' W 079°56'0 0.0
2017-Dec-30 05:29N 09°24' W 079°56'0 0.0
2017-Dec-30 04:59N 09°24' W 079°56'0 0.0
2017-Dec-30 04:29N 09°24' W 079°56'0 0.0
2017-Dec-30 03:59N 09°24' W 079°56'1 1.5
2017-Dec-30 03:30N 09°25' W 079°56'710.4
2017-Dec-30 02:51N 09°31' W 079°53'611.7
2017-Dec-30 02:22N 09°36' W 079°52'  
2017-Dec-24 20:29N 29°28' W 094°51'714.8
2017-Dec-24 20:00N 29°34' W 094°55'714.2
2017-Dec-24 19:30N 29°41' W 094°59'5 9.6
2017-Dec-24 19:00N 29°44' W 095°03'3 5.9
2017-Dec-24 18:30N 29°45' W 095°06'2 4.9
2017-Dec-24 18:00N 29°44' W 095°09'3 5.8
2017-Dec-24 17:30N 29°44' W 095°12'2 4.7
2017-Dec-24 17:00N 29°43' W 095°14'0 0.1
2017-Dec-24 16:20N 29°43' W 095°14'0 0.0
2017-Dec-23 07:59N 29°43' W 095°14'1 2.8
2017-Dec-23 07:30N 29°43' W 095°13'3 6.0
2017-Dec-23 07:00N 29°45' W 095°10'3 6.6
2017-Dec-23 06:30N 29°45' W 095°06'3 6.5
2017-Dec-23 06:00N 29°44' W 095°02'3 6.7
2017-Dec-23 05:30N 29°42' W 094°60'510.3
2017-Dec-23 05:00N 29°37' W 094°57'713.2
2017-Dec-23 04:30N 29°31' W 094°53'815.9
2017-Dec-23 04:00N 29°24' W 094°49'  

Dump ship's entire track history